createdAt,value
2018-01-06T00:00:44.429Z,993.05
2018-01-06T00:01:45.024Z,993.07
2018-01-06T00:02:45.619Z,992.99
2018-01-06T00:03:46.206Z,993.01
2018-01-06T00:04:46.796Z,992.98
2018-01-06T00:05:47.391Z,992.97
2018-01-06T00:06:47.988Z,992.99
2018-01-06T00:07:48.590Z,993.00
2018-01-06T00:08:49.187Z,992.95
2018-01-06T00:09:49.795Z,993.01
2018-01-06T00:10:50.387Z,992.97
2018-01-06T00:11:50.976Z,992.99
2018-01-06T00:12:51.574Z,993.01
2018-01-06T00:13:52.177Z,992.98
2018-01-06T00:14:52.767Z,992.97
2018-01-06T00:15:53.365Z,992.93
2018-01-06T00:16:53.978Z,992.92
2018-01-06T00:17:54.583Z,992.91
2018-01-06T00:18:55.192Z,992.88
2018-01-06T00:19:55.799Z,992.86
2018-01-06T00:20:56.388Z,992.86
2018-01-06T00:21:56.982Z,992.86
2018-01-06T00:22:57.573Z,992.86
2018-01-06T00:23:58.177Z,992.86
2018-01-06T00:24:58.783Z,992.83
2018-01-06T00:25:59.388Z,992.80
2018-01-06T00:26:59.991Z,992.83
2018-01-06T00:28:00.596Z,992.81
2018-01-06T00:29:01.182Z,992.85
2018-01-06T00:30:01.782Z,992.85
2018-01-06T00:31:02.390Z,992.87
2018-01-06T00:32:02.998Z,992.90
2018-01-06T00:33:03.590Z,992.89
2018-01-06T00:34:04.180Z,992.91
2018-01-06T00:35:04.774Z,992.91
2018-01-06T00:36:05.385Z,992.92
2018-01-06T00:37:05.996Z,992.91
2018-01-06T00:38:06.603Z,992.93
2018-01-06T00:39:07.206Z,992.92
2018-01-06T00:40:07.806Z,992.94
2018-01-06T00:41:08.389Z,992.93
2018-01-06T00:42:08.986Z,992.94
2018-01-06T00:43:09.583Z,992.93
2018-01-06T00:44:10.191Z,992.98
2018-01-06T00:45:10.794Z,992.93
2018-01-06T00:46:11.402Z,992.93
2018-01-06T00:47:11.994Z,992.94
2018-01-06T00:48:12.592Z,992.92
2018-01-06T00:49:13.189Z,992.95
2018-01-06T00:50:13.784Z,992.96
2018-01-06T00:51:14.372Z,992.97
2018-01-06T00:52:14.971Z,992.91
2018-01-06T00:53:15.569Z,992.95
2018-01-06T00:54:16.164Z,992.96
2018-01-06T00:55:16.754Z,992.97
2018-01-06T00:56:17.349Z,992.96
2018-01-06T00:57:17.951Z,992.96
2018-01-06T00:58:18.545Z,993.00
2018-01-06T00:59:19.137Z,993.02
2018-01-06T01:01:03.939Z,992.99
2018-01-06T01:02:04.540Z,993.00
2018-01-06T01:03:05.144Z,993.01
2018-01-06T01:04:05.744Z,993.03
2018-01-06T01:05:06.344Z,993.00
2018-01-06T01:06:06.968Z,992.99
2018-01-06T01:07:07.572Z,992.99
2018-01-06T01:08:08.196Z,992.97
2018-01-06T01:09:08.800Z,992.99
2018-01-06T01:10:09.401Z,993.03
2018-01-06T01:11:10.005Z,993.06
2018-01-06T01:12:10.627Z,993.06
2018-01-06T01:13:11.231Z,993.05
2018-01-06T01:14:11.832Z,993.06
2018-01-06T01:15:12.417Z,993.12
2018-01-06T01:16:13.054Z,993.08
2018-01-06T01:17:13.616Z,993.09
2018-01-06T01:18:14.225Z,993.09
2018-01-06T01:19:14.832Z,993.16
2018-01-06T01:20:15.424Z,993.12
2018-01-06T01:21:16.020Z,993.11
2018-01-06T01:22:16.623Z,993.11
2018-01-06T01:23:17.224Z,993.11
2018-01-06T01:24:17.834Z,993.08
2018-01-06T01:25:18.422Z,993.12
2018-01-06T01:26:19.032Z,993.11
2018-01-06T01:27:19.635Z,993.11
2018-01-06T01:28:20.230Z,993.10
2018-01-06T01:29:20.828Z,993.14
2018-01-06T01:30:21.435Z,993.11
2018-01-06T01:31:22.028Z,993.12
2018-01-06T01:32:22.632Z,993.14
2018-01-06T01:33:23.227Z,993.15
2018-01-06T01:34:23.815Z,993.16
2018-01-06T01:35:24.413Z,993.15
2018-01-06T01:36:25.016Z,993.15
2018-01-06T01:37:25.600Z,993.08
2018-01-06T01:38:26.207Z,993.18
2018-01-06T01:39:26.810Z,993.14
2018-01-06T01:40:27.437Z,993.19
2018-01-06T01:41:28.005Z,993.23
2018-01-06T01:42:28.592Z,993.26
2018-01-06T01:43:29.188Z,993.35
2018-01-06T01:44:29.801Z,993.37
2018-01-06T01:45:30.390Z,993.38
2018-01-06T01:46:30.986Z,993.44
2018-01-06T01:47:31.585Z,993.46
2018-01-06T01:48:32.195Z,993.50
2018-01-06T01:49:32.798Z,993.48
2018-01-06T01:50:33.390Z,993.51
2018-01-06T01:51:33.988Z,993.54
2018-01-06T01:52:34.589Z,993.57
2018-01-06T01:53:35.196Z,993.61
2018-01-06T01:54:35.807Z,993.65
2018-01-06T01:55:36.412Z,993.70
2018-01-06T01:56:37.015Z,993.74
2018-01-06T01:57:37.616Z,993.76
2018-01-06T01:58:38.209Z,993.79
2018-01-06T01:59:38.814Z,993.82
2018-01-06T02:00:39.419Z,993.82
2018-01-06T02:01:40.005Z,993.86
2018-01-06T02:02:40.597Z,993.90
2018-01-06T02:03:41.187Z,993.91
2018-01-06T02:04:41.781Z,993.94
2018-01-06T02:05:42.376Z,993.97
2018-01-06T02:06:42.970Z,993.96
2018-01-06T02:07:43.581Z,994.01
2018-01-06T02:08:44.193Z,993.99
2018-01-06T02:09:44.795Z,994.02
2018-01-06T02:10:45.386Z,994.00
2018-01-06T02:11:45.981Z,994.07
2018-01-06T02:12:46.585Z,994.08
2018-01-06T02:13:47.185Z,994.07
2018-01-06T02:14:47.781Z,994.07
2018-01-06T02:15:48.381Z,994.10
2018-01-06T02:16:48.977Z,994.09
2018-01-06T02:17:49.573Z,994.13
2018-01-06T02:18:50.197Z,994.06
2018-01-06T02:19:50.763Z,994.07
2018-01-06T02:20:51.354Z,994.09
2018-01-06T02:21:51.947Z,994.07
2018-01-06T02:22:52.543Z,994.06
2018-01-06T02:23:53.142Z,994.05
2018-01-06T02:24:53.733Z,994.06
2018-01-06T02:25:54.337Z,994.06
2018-01-06T02:26:54.946Z,994.06
2018-01-06T02:27:55.549Z,994.06
2018-01-06T02:28:56.135Z,994.03
2018-01-06T02:29:56.734Z,994.09
2018-01-06T02:30:57.330Z,994.07
2018-01-06T02:31:57.932Z,994.09
2018-01-06T02:32:58.544Z,994.07
2018-01-06T02:33:59.152Z,994.14
2018-01-06T02:34:59.765Z,994.12
2018-01-06T02:36:00.356Z,994.14
2018-01-06T02:37:00.950Z,994.07
2018-01-06T02:38:01.554Z,994.01
2018-01-06T02:39:02.156Z,994.02
2018-01-06T02:40:02.759Z,993.98
2018-01-06T02:41:03.358Z,993.95
2018-01-06T02:42:03.953Z,993.95
2018-01-06T02:43:04.547Z,993.98
2018-01-06T02:44:05.143Z,993.97
2018-01-06T02:45:05.736Z,993.99
2018-01-06T02:46:06.332Z,993.99
2018-01-06T02:47:06.935Z,994.04
2018-01-06T02:48:07.543Z,994.06
2018-01-06T02:49:08.144Z,994.06
2018-01-06T02:50:08.739Z,994.08
2018-01-06T02:51:09.326Z,994.08
2018-01-06T02:52:09.928Z,994.06
2018-01-06T02:53:10.520Z,994.06
2018-01-06T02:54:11.114Z,994.07
2018-01-06T02:55:11.713Z,994.03
2018-01-06T02:56:12.312Z,994.03
2018-01-06T02:57:12.906Z,994.02
2018-01-06T02:58:13.501Z,994.01
2018-01-06T02:59:14.095Z,994.05
2018-01-06T03:00:14.699Z,994.04
2018-01-06T03:01:15.291Z,994.08
2018-01-06T03:02:15.894Z,994.06
2018-01-06T03:03:16.489Z,994.07
2018-01-06T03:04:17.078Z,994.10
2018-01-06T03:05:17.673Z,994.09
2018-01-06T03:06:18.276Z,994.07
2018-01-06T03:07:18.863Z,994.12
2018-01-06T03:08:19.454Z,994.04
2018-01-06T03:09:20.045Z,994.05
2018-01-06T03:10:20.642Z,994.03
2018-01-06T03:11:21.233Z,994.05
2018-01-06T03:12:21.827Z,994.02
2018-01-06T03:13:22.416Z,994.00
2018-01-06T03:14:23.020Z,994.02
2018-01-06T03:15:23.622Z,993.97
2018-01-06T03:16:24.220Z,993.95
2018-01-06T03:17:24.827Z,993.98
2018-01-06T03:18:25.421Z,993.96
2018-01-06T03:19:26.012Z,993.98
2018-01-06T03:20:26.604Z,994.01
2018-01-06T03:21:27.189Z,994.04
2018-01-06T03:22:27.785Z,994.03
2018-01-06T03:23:28.388Z,994.06
2018-01-06T03:24:28.991Z,994.05
2018-01-06T03:25:29.598Z,994.06
2018-01-06T03:26:30.188Z,994.09
2018-01-06T03:27:30.774Z,994.11
2018-01-06T03:28:31.376Z,994.11
2018-01-06T03:29:31.981Z,994.16
2018-01-06T03:30:32.576Z,994.17
2018-01-06T03:31:33.179Z,994.21
2018-01-06T03:32:33.778Z,994.21
2018-01-06T03:33:34.365Z,994.18
2018-01-06T03:34:34.961Z,994.14
2018-01-06T03:35:35.557Z,994.13
2018-01-06T03:36:36.151Z,994.11
2018-01-06T03:37:36.743Z,994.14
2018-01-06T03:38:37.338Z,994.10
2018-01-06T03:39:37.934Z,994.08
2018-01-06T03:40:38.538Z,994.14
2018-01-06T03:41:39.144Z,994.10
2018-01-06T03:42:39.750Z,994.13
2018-01-06T03:43:40.346Z,994.14
2018-01-06T03:44:40.948Z,994.15
2018-01-06T03:45:41.552Z,994.19
2018-01-06T03:46:42.141Z,994.17
2018-01-06T03:47:42.741Z,994.17
2018-01-06T03:48:43.342Z,994.21
2018-01-06T03:49:43.988Z,994.21
2018-01-06T03:50:44.547Z,994.21
2018-01-06T03:51:45.144Z,994.24
2018-01-06T03:52:45.740Z,994.26
2018-01-06T03:53:46.348Z,994.31
2018-01-06T03:54:46.957Z,994.35
2018-01-06T03:55:47.559Z,994.39
2018-01-06T03:56:48.153Z,994.40
2018-01-06T03:57:48.748Z,994.37
2018-01-06T03:58:49.349Z,994.35
2018-01-06T03:59:49.949Z,994.34
2018-01-06T04:00:50.543Z,994.32
2018-01-06T04:01:51.145Z,994.31
2018-01-06T04:02:51.758Z,994.29
2018-01-06T04:03:52.358Z,994.34
2018-01-06T04:04:52.962Z,994.30
2018-01-06T04:05:53.564Z,994.35
2018-01-06T04:06:54.183Z,994.36
2018-01-06T04:07:54.754Z,994.40
2018-01-06T04:08:55.343Z,994.45
2018-01-06T04:09:55.947Z,994.42
2018-01-06T04:10:56.550Z,994.49
2018-01-06T04:11:57.146Z,994.52
2018-01-06T04:12:57.748Z,994.56
2018-01-06T04:13:58.334Z,994.54
2018-01-06T04:14:58.937Z,994.53
2018-01-06T04:15:59.525Z,994.52
2018-01-06T04:17:00.121Z,994.51
2018-01-06T04:18:00.720Z,994.50
2018-01-06T04:19:01.321Z,994.46
2018-01-06T04:20:01.924Z,994.45
2018-01-06T04:21:02.525Z,994.45
2018-01-06T04:22:03.117Z,994.41
2018-01-06T04:23:03.710Z,994.48
2018-01-06T04:24:04.304Z,994.51
2018-01-06T04:25:04.896Z,994.46
2018-01-06T04:26:05.492Z,994.49
2018-01-06T04:27:06.079Z,994.49
2018-01-06T04:28:06.683Z,994.57
2018-01-06T04:29:07.268Z,994.65
2018-01-06T04:30:07.866Z,994.74
2018-01-06T04:31:08.464Z,994.80
2018-01-06T04:32:09.065Z,994.81
2018-01-06T04:33:09.676Z,994.80
2018-01-06T04:34:10.283Z,994.82
2018-01-06T04:35:10.884Z,994.79
2018-01-06T04:36:11.482Z,994.84
2018-01-06T04:37:12.077Z,994.87
2018-01-06T04:38:12.676Z,994.84
2018-01-06T04:39:13.269Z,994.91
2018-01-06T04:40:13.868Z,994.90
2018-01-06T04:41:14.461Z,994.92
2018-01-06T04:42:15.050Z,994.92
2018-01-06T04:43:15.644Z,994.92
2018-01-06T04:44:16.241Z,994.91
2018-01-06T04:45:16.834Z,994.92
2018-01-06T04:46:17.422Z,994.85
2018-01-06T04:47:18.016Z,994.83
2018-01-06T04:48:18.622Z,994.84
2018-01-06T04:49:19.216Z,994.85
2018-01-06T04:50:19.814Z,994.90
2018-01-06T04:51:20.410Z,994.90
2018-01-06T04:52:21.003Z,994.91
2018-01-06T04:53:21.602Z,994.93
2018-01-06T04:54:22.192Z,994.96
2018-01-06T04:55:22.791Z,994.93
2018-01-06T04:56:23.379Z,994.93
2018-01-06T04:57:23.982Z,994.94
2018-01-06T04:58:24.583Z,994.95
2018-01-06T04:59:25.179Z,994.91
2018-01-06T05:00:25.777Z,994.89
2018-01-06T05:01:26.382Z,994.89
2018-01-06T05:02:26.987Z,994.89
2018-01-06T05:03:27.587Z,994.87
2018-01-06T05:04:28.181Z,994.84
2018-01-06T05:05:28.787Z,994.84
2018-01-06T05:06:29.399Z,994.86
2018-01-06T05:07:30.010Z,994.87
2018-01-06T05:08:30.618Z,994.85
2018-01-06T05:09:31.230Z,994.84
2018-01-06T05:10:31.838Z,994.88
2018-01-06T05:11:32.443Z,994.88
2018-01-06T05:12:33.049Z,994.93
2018-01-06T05:13:33.640Z,994.94
2018-01-06T05:14:34.226Z,994.94
2018-01-06T05:15:34.819Z,994.90
2018-01-06T05:16:35.411Z,994.91
2018-01-06T05:17:36.007Z,994.87
2018-01-06T05:18:36.602Z,994.88
2018-01-06T05:19:37.198Z,994.93
2018-01-06T05:20:37.794Z,994.93
2018-01-06T05:21:38.387Z,994.94
2018-01-06T05:22:38.996Z,994.94
2018-01-06T05:23:39.592Z,994.95
2018-01-06T05:24:40.192Z,994.96
2018-01-06T05:25:40.795Z,994.93
2018-01-06T05:26:41.378Z,994.90
2018-01-06T05:27:41.981Z,994.88
2018-01-06T05:28:42.583Z,994.82
2018-01-06T05:29:43.175Z,994.77
2018-01-06T05:30:43.776Z,994.76
2018-01-06T05:31:44.386Z,994.73
2018-01-06T05:32:44.975Z,994.71
2018-01-06T05:33:45.571Z,994.66
2018-01-06T05:34:46.167Z,994.69
2018-01-06T05:35:46.779Z,994.67
2018-01-06T05:36:47.387Z,994.63
2018-01-06T05:37:47.987Z,994.64
2018-01-06T05:38:48.579Z,994.61
2018-01-06T05:39:49.185Z,994.65
2018-01-06T05:40:49.787Z,994.74
2018-01-06T05:41:50.383Z,994.74
2018-01-06T05:42:50.986Z,994.77
2018-01-06T05:43:51.592Z,994.78
2018-01-06T05:44:52.190Z,994.79
2018-01-06T05:45:52.784Z,994.76
2018-01-06T05:46:53.387Z,994.79
2018-01-06T05:47:53.995Z,994.80
2018-01-06T05:48:54.596Z,994.82
2018-01-06T05:49:55.193Z,994.82
2018-01-06T05:50:55.801Z,994.84
2018-01-06T05:51:56.403Z,994.84
2018-01-06T05:52:56.995Z,994.86
2018-01-06T05:53:57.598Z,994.85
2018-01-06T05:54:58.205Z,994.83
2018-01-06T05:55:58.814Z,994.83
2018-01-06T05:56:59.419Z,994.83
2018-01-06T05:58:00.013Z,994.81
2018-01-06T05:59:00.600Z,994.79
2018-01-06T06:00:01.202Z,994.78
2018-01-06T06:01:01.794Z,994.81
2018-01-06T06:02:02.386Z,994.88
2018-01-06T06:03:02.992Z,994.92
2018-01-06T06:04:03.592Z,994.94
2018-01-06T06:05:04.200Z,995.02
2018-01-06T06:06:04.811Z,995.03
2018-01-06T06:07:05.401Z,995.09
2018-01-06T06:08:06.010Z,995.06
2018-01-06T06:09:06.609Z,995.04
2018-01-06T06:10:07.206Z,995.03
2018-01-06T06:11:07.794Z,995.03
2018-01-06T06:12:08.395Z,995.02
2018-01-06T06:13:09.047Z,995.04
2018-01-06T06:14:09.597Z,995.04
2018-01-06T06:15:10.208Z,995.02
2018-01-06T06:16:10.810Z,995.04
2018-01-06T06:17:11.407Z,995.01
2018-01-06T06:18:12.009Z,995.04
2018-01-06T06:19:12.611Z,995.03
2018-01-06T06:20:13.211Z,995.06
2018-01-06T06:21:13.821Z,995.08
2018-01-06T06:22:14.429Z,995.07
2018-01-06T06:23:15.027Z,995.13
2018-01-06T06:24:15.622Z,995.13
2018-01-06T06:25:16.222Z,995.10
2018-01-06T06:26:16.841Z,995.05
2018-01-06T06:27:17.414Z,995.02
2018-01-06T06:28:18.005Z,995.03
2018-01-06T06:29:18.597Z,994.98
2018-01-06T06:30:19.192Z,994.98
2018-01-06T06:31:19.788Z,994.99
2018-01-06T06:32:20.384Z,994.97
2018-01-06T06:33:20.984Z,994.96
2018-01-06T06:34:21.579Z,994.98
2018-01-06T06:35:22.173Z,994.97
2018-01-06T06:36:22.785Z,995.00
2018-01-06T06:37:23.384Z,995.04
2018-01-06T06:38:23.981Z,995.13
2018-01-06T06:39:24.577Z,995.18
2018-01-06T06:40:25.178Z,995.29
2018-01-06T06:41:25.776Z,995.27
2018-01-06T06:42:26.370Z,995.30
2018-01-06T06:43:26.956Z,995.29
2018-01-06T06:44:27.543Z,995.24
2018-01-06T06:45:28.145Z,995.23
2018-01-06T06:46:28.750Z,995.24
2018-01-06T06:47:29.343Z,995.23
2018-01-06T06:48:29.940Z,995.23
2018-01-06T06:49:30.537Z,995.17
2018-01-06T06:50:31.140Z,995.15
2018-01-06T06:51:31.745Z,995.16
2018-01-06T06:52:32.337Z,995.12
2018-01-06T06:53:32.938Z,995.15
2018-01-06T06:54:33.542Z,995.19
2018-01-06T06:55:34.144Z,995.20
2018-01-06T06:56:34.742Z,995.21
2018-01-06T06:57:35.343Z,995.21
2018-01-06T06:58:35.954Z,995.22
2018-01-06T06:59:36.556Z,995.18
2018-01-06T07:00:37.151Z,995.24
2018-01-06T07:01:37.751Z,995.27
2018-01-06T07:02:38.346Z,995.29
2018-01-06T07:03:38.934Z,995.30
2018-01-06T07:04:39.532Z,995.31
2018-01-06T07:05:40.120Z,995.32
2018-01-06T07:06:40.717Z,995.35
2018-01-06T07:07:41.320Z,995.40
2018-01-06T07:08:41.926Z,995.38
2018-01-06T07:09:42.523Z,995.41
2018-01-06T07:10:43.129Z,995.36
2018-01-06T07:11:43.717Z,995.39
2018-01-06T07:12:44.317Z,995.46
2018-01-06T07:13:44.923Z,995.48
2018-01-06T07:14:45.507Z,995.50
2018-01-06T07:15:46.102Z,995.53
2018-01-06T07:16:46.700Z,995.60
2018-01-06T07:17:47.285Z,995.57
2018-01-06T07:18:47.883Z,995.58
2018-01-06T07:19:48.485Z,995.58
2018-01-06T07:20:49.092Z,995.60
2018-01-06T07:21:49.716Z,995.58
2018-01-06T07:22:50.285Z,995.60
2018-01-06T07:23:50.886Z,995.56
2018-01-06T07:24:51.490Z,995.60
2018-01-06T07:25:52.099Z,995.56
2018-01-06T07:26:52.689Z,995.56
2018-01-06T07:27:53.297Z,995.57
2018-01-06T07:28:53.896Z,995.58
2018-01-06T07:29:54.504Z,995.60
2018-01-06T07:30:55.104Z,995.62
2018-01-06T07:31:55.707Z,995.68
2018-01-06T07:32:56.311Z,995.64
2018-01-06T07:33:56.923Z,995.62
2018-01-06T07:34:57.516Z,995.62
2018-01-06T07:35:58.120Z,995.63
2018-01-06T07:36:58.718Z,995.64
2018-01-06T07:37:59.330Z,995.65
2018-01-06T07:38:59.939Z,995.63
2018-01-06T07:40:00.537Z,995.63
2018-01-06T07:41:01.138Z,995.62
2018-01-06T07:42:01.740Z,995.65
2018-01-06T07:43:02.341Z,995.65
2018-01-06T07:44:02.939Z,995.59
2018-01-06T07:45:03.539Z,995.64
2018-01-06T07:46:04.144Z,995.63
2018-01-06T07:47:04.751Z,995.61
2018-01-06T07:48:05.353Z,995.62
2018-01-06T07:49:05.950Z,995.66
2018-01-06T07:50:06.550Z,995.67
2018-01-06T07:51:07.150Z,995.74
2018-01-06T07:52:07.750Z,995.75
2018-01-06T07:53:08.346Z,995.80
2018-01-06T07:54:08.961Z,995.81
2018-01-06T07:55:09.563Z,995.84
2018-01-06T07:56:10.163Z,995.86
2018-01-06T07:57:10.768Z,995.91
2018-01-06T07:58:11.367Z,995.93
2018-01-06T07:59:11.972Z,995.93
2018-01-06T08:00:12.568Z,995.98
2018-01-06T08:01:13.160Z,996.05
2018-01-06T08:02:13.768Z,996.02
2018-01-06T08:03:14.428Z,995.97
2018-01-06T08:04:15.039Z,995.98
2018-01-06T08:05:15.643Z,995.93
2018-01-06T08:06:16.249Z,995.94
2018-01-06T08:07:16.858Z,995.98
2018-01-06T08:08:17.460Z,995.97
2018-01-06T08:09:18.052Z,995.94
2018-01-06T08:10:18.664Z,995.90
2018-01-06T08:11:19.267Z,995.89
2018-01-06T08:12:19.866Z,995.93
2018-01-06T08:13:20.473Z,995.94
2018-01-06T08:14:21.069Z,995.93
2018-01-06T08:15:21.672Z,995.93
2018-01-06T08:16:22.272Z,995.96
2018-01-06T08:17:22.880Z,995.99
2018-01-06T08:18:23.487Z,996.01
2018-01-06T08:19:24.096Z,996.02
2018-01-06T08:20:24.704Z,996.03
2018-01-06T08:21:25.316Z,996.02
2018-01-06T08:22:25.928Z,996.05
2018-01-06T08:23:26.536Z,996.07
2018-01-06T08:24:27.152Z,996.15
2018-01-06T08:25:27.773Z,996.16
2018-01-06T08:26:28.369Z,996.23
2018-01-06T08:27:28.978Z,996.26
2018-01-06T08:28:29.580Z,996.28
2018-01-06T08:29:30.190Z,996.31
2018-01-06T08:30:30.802Z,996.32
2018-01-06T08:31:31.411Z,996.31
2018-01-06T08:32:32.018Z,996.30
2018-01-06T08:33:32.618Z,996.32
2018-01-06T08:34:33.218Z,996.27
2018-01-06T08:35:33.822Z,996.27
2018-01-06T08:36:34.431Z,996.28
2018-01-06T08:37:35.046Z,996.31
2018-01-06T08:38:35.661Z,996.28
2018-01-06T08:39:36.270Z,996.27
2018-01-06T08:40:36.906Z,996.27
2018-01-06T08:41:37.492Z,996.35
2018-01-06T08:42:38.090Z,996.35
2018-01-06T08:43:38.691Z,996.38
2018-01-06T08:44:39.284Z,996.38
2018-01-06T08:45:39.893Z,996.37
2018-01-06T08:46:40.491Z,996.37
2018-01-06T08:47:41.094Z,996.35
2018-01-06T08:48:41.695Z,996.38
2018-01-06T08:49:42.312Z,996.41
2018-01-06T08:50:42.903Z,996.36
2018-01-06T08:51:43.497Z,996.40
2018-01-06T08:52:44.102Z,996.43
2018-01-06T08:53:44.705Z,996.41
2018-01-06T08:54:45.301Z,996.37
2018-01-06T08:55:45.902Z,996.39
2018-01-06T08:56:46.510Z,996.41
2018-01-06T08:57:47.123Z,996.43
2018-01-06T08:58:47.724Z,996.46
2018-01-06T08:59:48.337Z,996.50
2018-01-06T09:00:48.948Z,996.57
2018-01-06T09:01:49.557Z,996.56
2018-01-06T09:02:50.163Z,996.55
2018-01-06T09:03:50.764Z,996.51
2018-01-06T09:04:51.355Z,996.44
2018-01-06T09:05:51.957Z,996.44
2018-01-06T09:06:52.551Z,996.44
2018-01-06T09:07:53.154Z,996.49
2018-01-06T09:08:53.764Z,996.47
2018-01-06T09:09:54.370Z,996.49
2018-01-06T09:10:54.970Z,996.49
2018-01-06T09:11:55.563Z,996.50
2018-01-06T09:12:56.165Z,996.51
2018-01-06T09:13:56.765Z,996.53
2018-01-06T09:14:57.369Z,996.55
2018-01-06T09:15:57.976Z,996.55
2018-01-06T09:16:58.579Z,996.55
2018-01-06T09:17:59.179Z,996.57
2018-01-06T09:18:59.785Z,996.57
2018-01-06T09:20:00.384Z,996.58
2018-01-06T09:21:00.977Z,996.64
2018-01-06T09:22:01.586Z,996.65
2018-01-06T09:23:02.202Z,996.66
2018-01-06T09:24:02.839Z,996.60
2018-01-06T09:25:03.444Z,996.58
2018-01-06T09:26:04.049Z,996.63
2018-01-06T09:27:04.644Z,996.62
2018-01-06T09:28:05.248Z,996.65
2018-01-06T09:29:05.849Z,996.67
2018-01-06T09:30:06.460Z,996.70
2018-01-06T09:31:07.072Z,996.75
2018-01-06T09:32:07.678Z,996.73
2018-01-06T09:33:08.282Z,996.75
2018-01-06T09:34:08.893Z,996.75
2018-01-06T09:35:09.485Z,996.76
2018-01-06T09:36:10.087Z,996.81
2018-01-06T09:37:10.702Z,996.83
2018-01-06T09:38:11.314Z,996.82
2018-01-06T09:39:11.917Z,996.81
2018-01-06T09:40:12.515Z,996.82
2018-01-06T09:41:13.123Z,996.82
2018-01-06T09:42:13.770Z,996.82
2018-01-06T09:43:14.378Z,996.85
2018-01-06T09:44:15.000Z,996.83
2018-01-06T09:45:15.610Z,996.85
2018-01-06T09:46:16.213Z,996.93
2018-01-06T09:47:16.815Z,996.91
2018-01-06T09:48:17.422Z,996.91
2018-01-06T09:49:18.020Z,996.91
2018-01-06T09:50:18.620Z,996.88
2018-01-06T09:51:19.233Z,996.94
2018-01-06T09:52:19.842Z,996.92
2018-01-06T09:53:20.443Z,996.93
2018-01-06T09:54:21.052Z,996.91
2018-01-06T09:55:21.669Z,996.91
2018-01-06T09:56:22.277Z,996.90
2018-01-06T09:57:22.880Z,996.96
2018-01-06T09:58:23.491Z,996.97
2018-01-06T09:59:24.100Z,996.94
2018-01-06T10:00:24.698Z,996.92
2018-01-06T10:01:25.303Z,996.91
2018-01-06T10:02:25.937Z,996.93
2018-01-06T10:03:26.508Z,996.98
2018-01-06T10:04:27.111Z,996.96
2018-01-06T10:05:27.734Z,996.99
2018-01-06T10:06:28.335Z,996.97
2018-01-06T10:07:28.942Z,996.96
2018-01-06T10:08:29.552Z,996.88
2018-01-06T10:09:30.164Z,996.86
2018-01-06T10:10:30.773Z,996.85
2018-01-06T10:11:31.377Z,996.92
2018-01-06T10:12:31.988Z,996.95
2018-01-06T10:13:32.599Z,997.00
2018-01-06T10:14:33.207Z,997.00
2018-01-06T10:15:33.827Z,997.05
2018-01-06T10:16:34.448Z,997.05
2018-01-06T10:17:35.047Z,997.07
2018-01-06T10:18:35.652Z,997.07
2018-01-06T10:19:36.256Z,997.09
2018-01-06T10:20:36.858Z,997.12
2018-01-06T10:21:37.465Z,997.11
2018-01-06T10:22:38.071Z,997.16
2018-01-06T10:23:38.666Z,997.14
2018-01-06T10:24:39.274Z,997.18
2018-01-06T10:25:39.877Z,997.20
2018-01-06T10:26:40.480Z,997.18
2018-01-06T10:27:41.085Z,997.22
2018-01-06T10:28:41.695Z,997.22
2018-01-06T10:29:42.289Z,997.22
2018-01-06T10:30:42.903Z,997.20
2018-01-06T10:31:43.504Z,997.23
2018-01-06T10:32:44.126Z,997.23
2018-01-06T10:33:44.735Z,997.22
2018-01-06T10:34:45.337Z,997.24
2018-01-06T10:35:45.940Z,997.22
2018-01-06T10:36:46.570Z,997.24
2018-01-06T10:37:47.185Z,997.24
2018-01-06T10:38:47.766Z,997.25
2018-01-06T10:39:48.372Z,997.25
2018-01-06T10:40:48.988Z,997.25
2018-01-06T10:41:49.589Z,997.25
2018-01-06T10:42:50.216Z,997.29
2018-01-06T10:43:50.829Z,997.29
2018-01-06T10:44:51.474Z,997.30
2018-01-06T10:45:52.043Z,997.31
2018-01-06T10:46:52.652Z,997.38
2018-01-06T10:47:53.273Z,997.37
2018-01-06T10:48:53.885Z,997.41
2018-01-06T10:49:54.505Z,997.45
2018-01-06T10:50:55.113Z,997.46
2018-01-06T10:51:55.729Z,997.49
2018-01-06T10:52:56.349Z,997.48
2018-01-06T10:53:56.954Z,997.48
2018-01-06T10:54:57.554Z,997.46
2018-01-06T10:55:58.165Z,997.46
2018-01-06T10:56:58.780Z,997.47
2018-01-06T10:57:59.386Z,997.40
2018-01-06T10:58:59.994Z,997.47
2018-01-06T11:00:00.604Z,997.47
2018-01-06T11:01:01.201Z,997.46
2018-01-06T11:02:01.810Z,997.50
2018-01-06T11:03:02.431Z,997.49
2018-01-06T11:04:03.045Z,997.50
2018-01-06T11:05:03.663Z,997.53
2018-01-06T11:06:04.264Z,997.54
2018-01-06T11:07:04.886Z,997.56
2018-01-06T11:08:05.495Z,997.59
2018-01-06T11:09:06.100Z,997.62
2018-01-06T11:10:06.711Z,997.60
2018-01-06T11:11:07.320Z,997.61
2018-01-06T11:12:07.934Z,997.64
2018-01-06T11:13:08.539Z,997.61
2018-01-06T11:14:09.149Z,997.59
2018-01-06T11:15:09.740Z,997.59
2018-01-06T11:16:10.351Z,997.57
2018-01-06T11:17:10.952Z,997.61
2018-01-06T11:18:11.556Z,997.58
2018-01-06T11:19:12.173Z,997.62
2018-01-06T11:20:12.773Z,997.62
2018-01-06T11:21:13.376Z,997.57
2018-01-06T11:22:13.986Z,997.60
2018-01-06T11:23:14.589Z,997.57
2018-01-06T11:24:15.202Z,997.57
2018-01-06T11:25:15.808Z,997.58
2018-01-06T11:26:16.417Z,997.62
2018-01-06T11:27:17.028Z,997.62
2018-01-06T11:28:17.633Z,997.62
2018-01-06T11:29:18.252Z,997.62
2018-01-06T11:30:18.855Z,997.58
2018-01-06T11:31:19.464Z,997.56
2018-01-06T11:32:20.073Z,997.56
2018-01-06T11:33:20.672Z,997.59
2018-01-06T11:34:21.286Z,997.56
2018-01-06T11:35:21.901Z,997.59
2018-01-06T11:36:22.500Z,997.55
2018-01-06T11:37:23.098Z,997.57
2018-01-06T11:38:23.703Z,997.56
2018-01-06T11:39:24.307Z,997.59
2018-01-06T11:40:24.910Z,997.55
2018-01-06T11:41:25.522Z,997.57
2018-01-06T11:42:26.134Z,997.57
2018-01-06T11:43:26.732Z,997.57
2018-01-06T11:44:27.339Z,997.53
2018-01-06T11:45:27.956Z,997.59
2018-01-06T11:46:28.553Z,997.59
2018-01-06T11:47:29.149Z,997.64
2018-01-06T11:48:29.762Z,997.66
2018-01-06T11:49:30.372Z,997.68
2018-01-06T11:50:30.985Z,997.70
2018-01-06T11:51:31.598Z,997.76
2018-01-06T11:52:32.206Z,997.74
2018-01-06T11:53:32.812Z,997.79
2018-01-06T11:54:33.425Z,997.82
2018-01-06T11:55:34.040Z,997.81
2018-01-06T11:56:34.655Z,997.82
2018-01-06T11:57:35.264Z,997.84
2018-01-06T11:58:35.868Z,997.85
2018-01-06T11:59:36.465Z,997.88
2018-01-06T12:00:37.071Z,997.89
2018-01-06T12:01:37.679Z,997.88
2018-01-06T12:02:38.282Z,997.87
2018-01-06T12:03:38.877Z,997.91
2018-01-06T12:04:39.482Z,997.93
2018-01-06T12:05:40.101Z,997.93
2018-01-06T12:06:40.722Z,997.96
2018-01-06T12:07:41.326Z,997.93
2018-01-06T12:08:41.938Z,997.94
2018-01-06T12:09:42.541Z,997.95
2018-01-06T12:10:43.153Z,997.93
2018-01-06T12:11:43.757Z,997.95
2018-01-06T12:12:44.364Z,997.94
2018-01-06T12:13:45.001Z,997.98
2018-01-06T12:14:45.581Z,997.95
2018-01-06T12:15:46.177Z,997.91
2018-01-06T12:16:46.780Z,997.90
2018-01-06T12:17:47.387Z,997.94
2018-01-06T12:18:48.000Z,997.94
2018-01-06T12:19:48.613Z,997.93
2018-01-06T12:20:49.208Z,997.90
2018-01-06T12:21:49.825Z,997.92
2018-01-06T12:22:50.422Z,997.90
2018-01-06T12:23:51.032Z,997.90
2018-01-06T12:24:51.644Z,997.89
2018-01-06T12:25:52.258Z,997.87
2018-01-06T12:26:52.854Z,997.90
2018-01-06T12:27:53.465Z,997.91
2018-01-06T12:28:54.073Z,997.87
2018-01-06T12:29:54.680Z,997.90
2018-01-06T12:30:55.298Z,997.90
2018-01-06T12:31:55.919Z,997.94
2018-01-06T12:32:56.535Z,997.92
2018-01-06T12:33:57.134Z,997.96
2018-01-06T12:34:57.799Z,997.99
2018-01-06T12:35:58.358Z,998.01
2018-01-06T12:36:58.966Z,998.02